createdAt,value
2023-02-02T00:00:25.810Z,102148.44
2023-02-02T00:02:54.379Z,102128.63
2023-02-02T00:05:23.007Z,102145.75
2023-02-02T00:07:53.389Z,102149.81
2023-02-02T00:10:21.956Z,102153.56
2023-02-02T00:12:50.452Z,102161.84
2023-02-02T00:15:19.136Z,102164.97
2023-02-02T00:17:47.534Z,102161.53
2023-02-02T00:20:16.258Z,102149.16
2023-02-02T00:22:44.862Z,102152.53
2023-02-02T00:25:16.020Z,102144.72
2023-02-02T00:27:44.427Z,102150.56
2023-02-02T00:30:14.663Z,102143.06
2023-02-02T00:32:43.017Z,102143.78
2023-02-02T00:35:11.772Z,102144.94
2023-02-02T00:37:40.155Z,102149.94
2023-02-02T00:40:10.661Z,102151.56
2023-02-02T00:42:40.779Z,102148.09
2023-02-02T00:45:16.275Z,102152.22
2023-02-02T00:47:46.831Z,102154.66
2023-02-02T00:50:19.331Z,102156.38
2023-02-02T00:52:48.386Z,102160.97
2023-02-02T00:55:18.133Z,102162.25
2023-02-02T00:57:48.277Z,102158.91
2023-02-02T01:00:20.891Z,102163.16
2023-02-02T01:02:49.399Z,102155.91
2023-02-02T01:05:18.272Z,102144.59
2023-02-02T01:07:47.264Z,102151.28
2023-02-02T01:10:18.021Z,102153.28
2023-02-02T01:12:47.819Z,102160.19
2023-02-02T01:15:16.631Z,102159.34
2023-02-02T01:17:45.435Z,102161.53
2023-02-02T01:20:21.845Z,102157.50
2023-02-02T01:22:51.071Z,102162.94
2023-02-02T01:25:20.045Z,102162.22
2023-02-02T01:27:50.956Z,102163.44
2023-02-02T01:30:20.371Z,102161.63
2023-02-02T01:32:48.987Z,102162.31
2023-02-02T01:35:18.012Z,102156.13
2023-02-02T01:37:47.050Z,102160.31
2023-02-02T01:40:16.419Z,102156.50
2023-02-02T01:42:45.043Z,102167.38
2023-02-02T01:45:27.236Z,102169.56
2023-02-02T01:47:59.816Z,102160.41
2023-02-02T01:50:32.665Z,102173.41
2023-02-02T01:53:04.248Z,102173.00
2023-02-02T01:55:36.641Z,102176.22
2023-02-02T01:58:11.224Z,102174.63
2023-02-02T02:00:45.102Z,102178.06
2023-02-02T02:03:24.137Z,102188.75
2023-02-02T02:05:58.842Z,102176.41
2023-02-02T02:08:36.142Z,102175.31
2023-02-02T02:11:05.510Z,102172.84
2023-02-02T02:13:56.042Z,102167.59
2023-02-02T02:16:38.134Z,102172.13
2023-02-02T02:19:27.134Z,102174.56
2023-02-02T02:22:18.650Z,102166.47
2023-02-02T02:25:50.056Z,102161.50
2023-02-02T02:29:00.999Z,102155.69
2023-02-02T02:32:13.240Z,102154.81
2023-02-02T02:34:55.258Z,102151.41
2023-02-02T02:37:37.456Z,102152.81
2023-02-02T02:40:14.283Z,102148.06
2023-02-02T02:42:47.845Z,102140.53
2023-02-02T02:45:18.241Z,102140.72
2023-02-02T02:47:52.042Z,102147.16
2023-02-02T02:50:21.629Z,102143.75
2023-02-02T02:52:58.783Z,102149.97
2023-02-02T02:55:35.783Z,102148.50
2023-02-02T02:58:14.135Z,102164.22
2023-02-02T03:00:57.664Z,102170.09
2023-02-02T03:03:44.678Z,102167.97
2023-02-02T03:06:21.662Z,102163.03
2023-02-02T03:08:55.533Z,102168.16
2023-02-02T03:11:24.295Z,102169.66
2023-02-02T03:13:53.465Z,102169.88
2023-02-02T03:16:23.850Z,102169.97
2023-02-02T03:18:55.966Z,102168.88
2023-02-02T03:21:25.155Z,102170.69
2023-02-02T03:23:53.854Z,102171.41
2023-02-02T03:26:23.168Z,102171.66
2023-02-02T03:28:55.097Z,102173.75
2023-02-02T03:31:24.030Z,102177.78
2023-02-02T03:33:54.399Z,102149.53
2023-02-02T03:36:24.293Z,102170.44
2023-02-02T03:38:53.545Z,102185.25
2023-02-02T03:41:22.198Z,102172.72
2023-02-02T03:43:50.868Z,102171.78
2023-02-02T03:46:19.934Z,102165.94
2023-02-02T03:48:48.405Z,102161.53
2023-02-02T03:51:18.481Z,102160.06
2023-02-02T03:53:47.604Z,102163.34
2023-02-02T03:56:16.886Z,102143.34
2023-02-02T03:58:46.440Z,102144.94
2023-02-02T04:01:16.152Z,102141.69
2023-02-02T04:03:46.495Z,102135.97
2023-02-02T04:06:15.667Z,102145.06
2023-02-02T04:08:47.715Z,102148.31
2023-02-02T04:11:16.583Z,102141.84
2023-02-02T04:13:45.673Z,102150.75
2023-02-02T04:16:15.478Z,102156.31
2023-02-02T04:18:44.411Z,102160.34
2023-02-02T04:21:13.693Z,102155.19
2023-02-02T04:23:43.013Z,102152.53
2023-02-02T04:26:14.763Z,102152.03
2023-02-02T04:28:43.512Z,102165.84
2023-02-02T04:31:14.701Z,102157.72
2023-02-02T04:33:44.008Z,102173.69
2023-02-02T04:36:12.982Z,102162.72
2023-02-02T04:38:43.737Z,102164.31
2023-02-02T04:41:15.356Z,102172.31
2023-02-02T04:43:44.767Z,102171.41
2023-02-02T04:46:13.849Z,102178.94
2023-02-02T04:48:43.687Z,102170.78
2023-02-02T04:51:15.182Z,102175.41
2023-02-02T04:53:45.012Z,102160.72
2023-02-02T04:56:19.787Z,102169.03
2023-02-02T04:58:48.662Z,102160.13
2023-02-02T05:01:20.815Z,102174.22
2023-02-02T05:03:50.248Z,102173.63
2023-02-02T05:06:20.502Z,102175.66
2023-02-02T05:08:50.213Z,102174.69
2023-02-02T05:11:23.815Z,102176.47
2023-02-02T05:13:54.777Z,102172.94
2023-02-02T05:16:28.906Z,102165.34
2023-02-02T05:18:59.630Z,102183.53
2023-02-02T05:21:28.288Z,102175.75
2023-02-02T05:23:57.455Z,102180.63
2023-02-02T05:26:28.959Z,102185.38
2023-02-02T05:28:59.077Z,102177.47
2023-02-02T05:31:28.485Z,102182.09
2023-02-02T05:33:57.375Z,102182.19
2023-02-02T05:36:26.424Z,102189.53
2023-02-02T05:38:54.951Z,102188.25
2023-02-02T05:41:23.764Z,102186.47
2023-02-02T05:43:55.125Z,102187.09
2023-02-02T05:46:26.195Z,102195.69
2023-02-02T05:48:54.974Z,102196.97
2023-02-02T05:51:30.021Z,102187.09
2023-02-02T05:54:00.942Z,102194.25
2023-02-02T05:56:29.647Z,102207.47
2023-02-02T05:59:00.196Z,102194.97
2023-02-02T06:01:28.990Z,102206.22
2023-02-02T06:03:57.704Z,102199.78
2023-02-02T06:06:26.371Z,102195.13
2023-02-02T06:08:55.129Z,102210.56
2023-02-02T06:11:23.776Z,102205.94
2023-02-02T06:13:52.471Z,102202.69
2023-02-02T06:16:22.745Z,102206.44
2023-02-02T06:18:51.129Z,102219.13
2023-02-02T06:21:47.450Z,102216.09
2023-02-02T06:24:16.155Z,102220.47
2023-02-02T06:26:48.072Z,102225.56
2023-02-02T06:29:16.864Z,102225.66
2023-02-02T06:31:47.443Z,102221.97
2023-02-02T06:34:16.636Z,102227.28
2023-02-02T06:36:45.301Z,102243.56
2023-02-02T06:39:14.538Z,102243.16
2023-02-02T06:41:46.706Z,102225.78
2023-02-02T06:44:16.265Z,102250.47
2023-02-02T06:46:46.669Z,102248.44
2023-02-02T06:49:15.836Z,102260.47
2023-02-02T06:51:46.980Z,102256.72
2023-02-02T06:54:15.992Z,102257.97
2023-02-02T06:56:44.886Z,102256.69
2023-02-02T06:59:14.479Z,102253.75
2023-02-02T07:01:43.308Z,102242.25
2023-02-02T07:04:14.328Z,102248.69
2023-02-02T07:06:43.258Z,102241.13
2023-02-02T07:09:12.096Z,102236.41
2023-02-02T07:11:45.070Z,102242.38
2023-02-02T07:14:14.464Z,102253.47
2023-02-02T07:16:43.267Z,102261.31
2023-02-02T07:19:14.571Z,102262.50
2023-02-02T07:21:43.104Z,102267.28
2023-02-02T07:24:11.888Z,102257.25
2023-02-02T07:26:41.128Z,102273.44
2023-02-02T07:29:13.352Z,102272.63
2023-02-02T07:31:42.450Z,102272.91
2023-02-02T07:34:13.009Z,102275.31
2023-02-02T07:36:47.866Z,102273.03
2023-02-02T07:39:17.023Z,102270.88
2023-02-02T07:41:46.360Z,102284.59
2023-02-02T07:44:16.623Z,102282.97
2023-02-02T07:46:48.729Z,102303.25
2023-02-02T07:49:20.455Z,102297.03
2023-02-02T07:51:49.304Z,102288.72
2023-02-02T07:54:17.982Z,102297.41
2023-02-02T07:56:46.688Z,102290.88
2023-02-02T07:59:15.313Z,102292.09
2023-02-02T08:01:45.158Z,102291.84
2023-02-02T08:04:13.808Z,102292.19
2023-02-02T08:06:44.692Z,102294.03
2023-02-02T08:09:13.394Z,102296.78
2023-02-02T08:11:42.148Z,102308.75
2023-02-02T08:14:15.818Z,102298.16
2023-02-02T08:16:44.794Z,102312.94
2023-02-02T08:19:14.067Z,102320.91
2023-02-02T08:21:44.584Z,102320.88
2023-02-02T08:24:15.883Z,102322.44
2023-02-02T08:26:45.220Z,102330.44
2023-02-02T08:29:17.571Z,102325.81
2023-02-02T08:31:47.363Z,102321.91
2023-02-02T08:34:17.084Z,102321.97
2023-02-02T08:36:52.797Z,102330.75
2023-02-02T08:39:23.587Z,102335.50
2023-02-02T08:41:57.569Z,102325.28
2023-02-02T08:44:42.118Z,102342.25
2023-02-02T08:47:16.722Z,102342.94
2023-02-02T08:49:46.687Z,102342.63
2023-02-02T08:52:18.024Z,102337.06
2023-02-02T08:54:53.513Z,102337.22
2023-02-02T08:57:22.277Z,102354.06
2023-02-02T08:59:51.318Z,102349.75
2023-02-02T09:02:21.159Z,102362.41
2023-02-02T09:04:50.770Z,102357.31
2023-02-02T09:07:21.330Z,102359.66
2023-02-02T09:09:51.435Z,102367.44
2023-02-02T09:12:21.345Z,102366.34
2023-02-02T09:14:53.712Z,102375.75
2023-02-02T09:17:25.654Z,102382.88
2023-02-02T09:19:54.609Z,102378.28
2023-02-02T09:22:24.637Z,102381.72
2023-02-02T09:24:53.560Z,102389.34
2023-02-02T09:27:22.270Z,102393.06
2023-02-02T09:29:53.171Z,102389.16
2023-02-02T09:32:22.224Z,102391.19
2023-02-02T09:34:51.505Z,102387.25
2023-02-02T09:37:24.464Z,102389.25
2023-02-02T09:39:57.756Z,102398.09
2023-02-02T09:42:44.674Z,102391.16
2023-02-02T09:45:27.706Z,102395.75
2023-02-02T09:48:05.328Z,102400.50
2023-02-02T09:50:45.200Z,102395.75
2023-02-02T09:53:24.383Z,102398.50
2023-02-02T09:55:59.090Z,102398.06
2023-02-02T09:58:33.264Z,102403.66
2023-02-02T10:01:09.635Z,102413.97
2023-02-02T10:03:45.097Z,102412.16
2023-02-02T10:06:25.806Z,102418.03
2023-02-02T10:09:02.714Z,102429.09
2023-02-02T10:11:38.744Z,102428.22
2023-02-02T10:14:17.314Z,102428.13
2023-02-02T10:16:51.568Z,102426.94
2023-02-02T10:19:20.582Z,102429.84
2023-02-02T10:22:00.147Z,102427.66
2023-02-02T10:24:35.656Z,102427.88
2023-02-02T10:27:13.802Z,102429.78
2023-02-02T10:29:54.634Z,102433.28
2023-02-02T10:32:28.899Z,102441.78
2023-02-02T10:35:23.623Z,102441.50
2023-02-02T10:38:03.118Z,102434.28
2023-02-02T10:40:56.659Z,102449.09
2023-02-02T10:44:10.876Z,102446.09
2023-02-02T10:46:44.314Z,102442.88
2023-02-02T10:49:32.793Z,102443.94
2023-02-02T10:52:13.771Z,102437.91
2023-02-02T10:55:00.017Z,102443.94
2023-02-02T10:57:47.383Z,102447.72
2023-02-02T11:00:25.611Z,102439.56
2023-02-02T11:02:54.994Z,102441.88
2023-02-02T11:05:43.731Z,102430.72
2023-02-02T11:08:22.377Z,102442.06
2023-02-02T11:10:57.221Z,102437.38
2023-02-02T11:13:32.460Z,102448.00
2023-02-02T11:16:42.798Z,102438.06
2023-02-02T11:19:30.008Z,102434.00
2023-02-02T11:22:01.422Z,102432.16
2023-02-02T11:24:37.074Z,102446.50
2023-02-02T11:27:14.612Z,102437.91
2023-02-02T11:29:48.710Z,102440.69
2023-02-02T11:32:31.842Z,102443.31
2023-02-02T11:35:20.961Z,102443.47
2023-02-02T11:38:12.521Z,102441.19
2023-02-02T11:40:44.270Z,102448.28
2023-02-02T11:43:21.730Z,102445.16
2023-02-02T11:45:57.646Z,102444.59
2023-02-02T11:48:33.207Z,102440.72
2023-02-02T11:51:03.105Z,102438.06
2023-02-02T11:53:35.258Z,102436.81
2023-02-02T11:56:11.010Z,102435.38
2023-02-02T11:58:46.484Z,102443.41
2023-02-02T12:01:27.720Z,102437.44
2023-02-02T12:04:00.221Z,102437.59
2023-02-02T12:06:37.143Z,102442.69
2023-02-02T12:09:14.726Z,102431.41
2023-02-02T12:12:00.209Z,102434.31
2023-02-02T12:14:41.127Z,102435.22
2023-02-02T12:17:35.180Z,102431.97
2023-02-02T12:20:24.494Z,102427.34
2023-02-02T12:23:23.691Z,102428.63
2023-02-02T12:26:29.938Z,102418.81
2023-02-02T12:29:35.478Z,102416.97
2023-02-02T12:32:26.450Z,102420.13
2023-02-02T12:35:21.939Z,102422.84
2023-02-02T12:38:02.048Z,102423.06
2023-02-02T12:40:48.234Z,102426.63
2023-02-02T12:43:30.988Z,102425.78
2023-02-02T12:46:23.291Z,102424.84
2023-02-02T12:49:17.821Z,102416.13
2023-02-02T12:52:11.903Z,102416.13
2023-02-02T12:55:10.753Z,102415.56
2023-02-02T12:57:55.988Z,102417.44
2023-02-02T13:01:05.576Z,102412.03
2023-02-02T13:03:54.483Z,102412.38
2023-02-02T13:07:07.340Z,102414.88
2023-02-02T13:09:47.283Z,102423.41
2023-02-02T13:12:20.073Z,102417.94
2023-02-02T13:14:53.813Z,102418.41
2023-02-02T13:17:31.572Z,102414.75
2023-02-02T13:20:06.500Z,102425.66
2023-02-02T13:22:42.049Z,102425.91
2023-02-02T13:25:21.185Z,102431.25
2023-02-02T13:27:50.494Z,102432.22
2023-02-02T13:30:30.806Z,102426.94
2023-02-02T13:33:04.483Z,102424.72
2023-02-02T13:35:40.161Z,102438.66
2023-02-02T13:38:18.414Z,102431.53
2023-02-02T13:40:50.052Z,102438.28
2023-02-02T13:43:32.376Z,102432.47
2023-02-02T13:46:30.849Z,102441.56
2023-02-02T13:49:10.453Z,102434.19
2023-02-02T13:51:55.574Z,102438.09
2023-02-02T13:55:33.559Z,102437.47
2023-02-02T13:58:54.379Z,102435.38
2023-02-02T14:01:24.774Z,102443.53
2023-02-02T14:03:57.797Z,102441.88
2023-02-02T14:06:30.937Z,102446.25
2023-02-02T14:09:03.670Z,102448.38
2023-02-02T14:11:35.533Z,102442.25
2023-02-02T14:14:35.954Z,102452.53
2023-02-02T14:17:08.228Z,102455.44
2023-02-02T14:19:57.196Z,102455.81
2023-02-02T14:22:45.704Z,102449.69
2023-02-02T14:25:53.457Z,102448.09
2023-02-02T14:28:45.904Z,102451.19
2023-02-02T14:31:52.252Z,102448.50
2023-02-02T14:34:33.704Z,102450.66
2023-02-02T14:37:49.231Z,102459.41
2023-02-02T14:40:40.517Z,102457.69
2023-02-02T14:43:40.955Z,102458.44
2023-02-02T14:46:33.156Z,102469.28
2023-02-02T14:49:30.899Z,102459.75
2023-02-02T14:52:05.488Z,102468.56
2023-02-02T14:54:40.715Z,102465.00
2023-02-02T14:57:28.178Z,102466.91
2023-02-02T15:00:01.178Z,102467.88
2023-02-02T15:02:36.106Z,102467.44
2023-02-02T15:05:46.534Z,102475.19
2023-02-02T15:08:27.519Z,102477.13
2023-02-02T15:11:29.820Z,102471.09
2023-02-02T15:14:10.522Z,102470.47
2023-02-02T15:16:44.446Z,102479.25
2023-02-02T15:19:28.250Z,102469.41
2023-02-02T15:22:07.024Z,102482.94
2023-02-02T15:24:38.861Z,102478.84
2023-02-02T15:27:09.938Z,102481.69
2023-02-02T15:29:45.997Z,102487.34
2023-02-02T15:32:21.360Z,102483.88
2023-02-02T15:35:18.569Z,102485.16
2023-02-02T15:38:00.577Z,102484.25
2023-02-02T15:40:34.132Z,102491.72
2023-02-02T15:43:07.842Z,102491.50
2023-02-02T15:45:48.478Z,102481.53
2023-02-02T15:48:30.512Z,102489.63
2023-02-02T15:51:02.858Z,102490.22
2023-02-02T15:53:48.924Z,102496.53
2023-02-02T15:56:30.487Z,102487.69
2023-02-02T15:59:01.819Z,102491.44
2023-02-02T16:01:45.757Z,102495.69
2023-02-02T16:04:22.634Z,102499.84
2023-02-02T16:06:52.376Z,102493.91
2023-02-02T16:09:34.302Z,102506.94
2023-02-02T16:12:04.629Z,102509.25
2023-02-02T16:14:36.388Z,102511.81
2023-02-02T16:17:22.274Z,102519.72
2023-02-02T16:19:53.857Z,102508.41
2023-02-02T16:22:26.100Z,102509.78
2023-02-02T16:25:02.668Z,102511.53
2023-02-02T16:27:33.024Z,102510.69
2023-02-02T16:30:07.892Z,102518.84
2023-02-02T16:32:39.458Z,102520.34
2023-02-02T16:35:32.678Z,102520.94
2023-02-02T16:38:17.577Z,102516.72
2023-02-02T16:40:49.544Z,102521.38
2023-02-02T16:43:22.695Z,102519.31
2023-02-02T16:48:40.454Z,102520.28
2023-02-02T16:51:27.416Z,102539.47
2023-02-02T16:54:07.944Z,102530.16
2023-02-02T16:56:42.067Z,102531.28
2023-02-02T16:59:25.524Z,102541.66
2023-02-02T17:01:58.590Z,102531.03
2023-02-02T17:04:32.641Z,102536.63
2023-02-02T17:07:12.384Z,102545.38
2023-02-02T17:09:45.264Z,102542.66
2023-02-02T17:12:33.596Z,102543.91
2023-02-02T17:15:06.820Z,102546.16
2023-02-02T17:17:35.532Z,102534.94
2023-02-02T17:20:06.711Z,102544.34
2023-02-02T17:22:41.344Z,102548.16
2023-02-02T17:25:18.013Z,102546.63
2023-02-02T17:27:50.201Z,102546.25
2023-02-02T17:30:24.804Z,102551.56
2023-02-02T17:32:54.518Z,102542.50
2023-02-02T17:35:27.255Z,102540.94
2023-02-02T17:37:58.462Z,102551.19
2023-02-02T17:40:28.650Z,102542.25
2023-02-02T17:42:59.738Z,102544.94
2023-02-02T17:45:47.896Z,102542.94
2023-02-02T17:48:17.202Z,102541.19
2023-02-02T17:50:48.041Z,102538.13
2023-02-02T17:53:21.122Z,102532.72
2023-02-02T17:55:52.415Z,102535.03
2023-02-02T17:58:26.519Z,102538.56
2023-02-02T18:01:01.190Z,102535.78
2023-02-02T18:03:42.358Z,102533.63
2023-02-02T18:06:14.753Z,102521.56
2023-02-02T18:08:43.982Z,102534.97
2023-02-02T18:11:15.097Z,102533.69
2023-02-02T18:13:46.715Z,102521.25
2023-02-02T18:16:19.975Z,102520.31
2023-02-02T18:18:48.839Z,102520.16
2023-02-02T18:21:18.499Z,102511.16
2023-02-02T18:23:49.585Z,102518.09
2023-02-02T18:26:22.229Z,102520.69
2023-02-02T18:28:53.680Z,102518.38
2023-02-02T18:31:24.402Z,102517.44
2023-02-02T18:33:53.973Z,102517.78
2023-02-02T18:36:23.970Z,102523.69
2023-02-02T18:38:53.934Z,102523.28
2023-02-02T18:41:22.555Z,102515.31
2023-02-02T18:43:57.613Z,102512.38
2023-02-02T18:46:34.397Z,102510.25
2023-02-02T18:49:06.842Z,102510.97
2023-02-02T18:51:39.103Z,102506.88
2023-02-02T18:54:11.128Z,102511.53
2023-02-02T18:56:40.356Z,102516.22
2023-02-02T18:59:17.908Z,102513.91
2023-02-02T19:01:47.127Z,102507.72
2023-02-02T19:04:18.643Z,102501.16
2023-02-02T19:07:04.931Z,102503.09
2023-02-02T19:09:35.024Z,102504.38
2023-02-02T19:15:15.032Z,102491.63
2023-02-02T19:17:55.547Z,102490.03
2023-02-02T19:20:29.386Z,102492.06
2023-02-02T19:23:08.608Z,102483.50
2023-02-02T19:25:37.167Z,102494.28
2023-02-02T19:28:18.824Z,102489.53
2023-02-02T19:30:49.282Z,102494.28
2023-02-02T19:33:18.424Z,102499.94
2023-02-02T19:35:51.745Z,102497.25
2023-02-02T19:38:20.908Z,102497.25
2023-02-02T19:40:50.254Z,102498.19
2023-02-02T19:43:28.305Z,102487.66
2023-02-02T19:46:00.901Z,102489.38
2023-02-02T19:48:36.862Z,102499.63
2023-02-02T19:51:35.615Z,102513.69
2023-02-02T19:54:05.152Z,102511.72
2023-02-02T19:56:42.116Z,102509.31
2023-02-02T19:59:14.675Z,102515.81
2023-02-02T20:01:50.675Z,102526.44
2023-02-02T20:04:21.219Z,102533.63
2023-02-02T20:06:59.188Z,102533.28
2023-02-02T20:09:35.346Z,102533.34
2023-02-02T20:12:23.601Z,102539.31
2023-02-02T20:14:54.949Z,102525.78
2023-02-02T20:17:33.255Z,102522.25
2023-02-02T20:20:05.320Z,102521.03
2023-02-02T20:22:34.416Z,102523.00
2023-02-02T20:25:09.398Z,102525.56
2023-02-02T20:27:43.481Z,102524.78
2023-02-02T20:30:31.011Z,102530.56
2023-02-02T20:33:03.963Z,102536.34
2023-02-02T20:35:42.775Z,102534.53
2023-02-02T20:38:25.663Z,102530.13
2023-02-02T20:40:54.622Z,102538.50
2023-02-02T20:43:24.100Z,102537.34
2023-02-02T20:45:53.173Z,102530.78
2023-02-02T20:48:27.163Z,102542.63
2023-02-02T20:50:55.897Z,102540.50
2023-02-02T20:53:25.036Z,102534.81
2023-02-02T20:55:58.493Z,102546.59
2023-02-02T20:58:28.036Z,102545.16
2023-02-02T21:00:57.421Z,102553.22
2023-02-02T21:03:28.108Z,102548.97
2023-02-02T21:05:56.942Z,102530.94
2023-02-02T21:08:25.691Z,102541.66
2023-02-02T21:10:57.380Z,102539.03
2023-02-02T21:13:26.440Z,102535.72
2023-02-02T21:15:57.734Z,102527.59
2023-02-02T21:18:28.791Z,102526.97
2023-02-02T21:20:58.429Z,102540.84
2023-02-02T21:23:27.193Z,102537.13
2023-02-02T21:25:56.053Z,102537.47
2023-02-02T21:28:24.812Z,102531.09
2023-02-02T21:30:54.022Z,102528.81
2023-02-02T21:33:22.816Z,102534.19
2023-02-02T21:35:53.075Z,102546.97
2023-02-02T21:38:21.833Z,102545.75
2023-02-02T21:40:51.965Z,102547.63
2023-02-02T21:43:20.971Z,102542.66
2023-02-02T21:45:53.308Z,102532.59
2023-02-02T21:48:30.434Z,102529.97
2023-02-02T21:51:21.909Z,102535.94
2023-02-02T21:53:51.250Z,102531.22
2023-02-02T21:56:29.343Z,102535.44
2023-02-02T21:59:01.187Z,102536.53
2023-02-02T22:01:37.957Z,102520.22
2023-02-02T22:04:20.988Z,102520.97
2023-02-02T22:06:54.416Z,102523.81
2023-02-02T22:09:27.415Z,102521.69
2023-02-02T22:12:00.774Z,102525.78
2023-02-02T22:14:39.482Z,102527.25
2023-02-02T22:17:23.480Z,102512.41
2023-02-02T22:19:56.626Z,102511.97
2023-02-02T22:22:34.363Z,102513.28
2023-02-02T22:25:21.097Z,102511.97
2023-02-02T22:27:53.885Z,102495.03
2023-02-02T22:30:29.492Z,102487.88
2023-02-02T22:32:58.351Z,102476.63
2023-02-02T22:35:26.937Z,102465.19
2023-02-02T22:37:59.827Z,102467.59
2023-02-02T22:40:30.424Z,102457.28
2023-02-02T22:43:01.884Z,102448.69
2023-02-02T22:45:31.695Z,102442.69
2023-02-02T22:48:00.305Z,102449.22
2023-02-02T22:50:32.896Z,102435.66
2023-02-02T22:53:04.444Z,102427.28
2023-02-02T22:55:33.865Z,102416.03
2023-02-02T22:58:03.119Z,102415.94
2023-02-02T23:00:33.992Z,102406.47
2023-02-02T23:03:03.279Z,102423.88
2023-02-02T23:05:32.455Z,102420.38
2023-02-02T23:08:04.624Z,102431.59
2023-02-02T23:10:35.909Z,102424.41
2023-02-02T23:13:06.133Z,102439.19
2023-02-02T23:15:35.398Z,102433.25
2023-02-02T23:18:05.646Z,102439.41
2023-02-02T23:20:34.450Z,102443.34
2023-02-02T23:23:04.970Z,102438.00
2023-02-02T23:25:34.366Z,102437.38
2023-02-02T23:28:03.163Z,102429.34
2023-02-02T23:30:32.497Z,102418.94
2023-02-02T23:33:01.437Z,102436.16
2023-02-02T23:35:30.101Z,102442.41
2023-02-02T23:37:59.000Z,102447.25
2023-02-02T23:40:29.367Z,102453.75
2023-02-02T23:42:58.576Z,102450.47
2023-02-02T23:45:27.505Z,102452.59
2023-02-02T23:50:39.735Z,102466.59
2023-02-02T23:53:09.727Z,102462.28
2023-02-02T23:55:38.850Z,102471.13
2023-02-02T23:58:07.766Z,102467.44
